createdAt,value
2022-10-11T00:00:44.922Z,18.63
2022-10-11T00:03:14.473Z,18.25
2022-10-11T00:05:44.080Z,18.23
2022-10-11T00:08:13.775Z,21.05
2022-10-11T00:10:41.403Z,20.52
2022-10-11T00:13:09.033Z,18.02
2022-10-11T00:15:39.389Z,19.38
2022-10-11T00:18:07.441Z,18.83
2022-10-11T00:20:34.899Z,19.00
2022-10-11T00:23:02.418Z,18.00
2022-10-11T00:25:29.997Z,20.13
2022-10-11T00:27:57.460Z,18.65
2022-10-11T00:30:25.007Z,18.37
2022-10-11T00:32:52.574Z,20.30
2022-10-11T00:35:20.052Z,19.58
2022-10-11T00:37:47.560Z,18.03
2022-10-11T00:40:19.713Z,16.73
2022-10-11T00:42:47.635Z,19.10
2022-10-11T00:45:26.923Z,18.33
2022-10-11T00:47:59.835Z,19.30
2022-10-11T00:50:32.324Z,18.45
2022-10-11T00:53:07.880Z,18.95
2022-10-11T00:55:41.498Z,20.15
2022-10-11T00:58:11.035Z,19.17
2022-10-11T01:00:38.661Z,19.13
2022-10-11T01:03:06.664Z,18.83
2022-10-11T01:05:38.937Z,18.02
2022-10-11T01:08:08.817Z,19.58
2022-10-11T01:10:36.423Z,18.48
2022-10-11T01:13:37.226Z,19.67
2022-10-11T01:16:33.337Z,18.50
2022-10-11T01:19:38.854Z,20.27
2022-10-11T01:22:11.833Z,19.27
2022-10-11T01:25:00.502Z,20.98
2022-10-11T01:27:42.847Z,20.00
2022-10-11T01:30:29.918Z,18.00
2022-10-11T01:33:16.169Z,19.15
2022-10-11T01:36:04.962Z,18.95
2022-10-11T01:38:44.635Z,19.58
2022-10-11T01:41:23.613Z,19.70
2022-10-11T01:43:57.680Z,19.08
2022-10-11T01:46:26.378Z,19.58
2022-10-11T01:48:58.899Z,19.38
2022-10-11T01:51:34.592Z,19.05
2022-10-11T01:54:07.822Z,18.90
2022-10-11T01:57:02.532Z,19.60
2022-10-11T01:59:29.911Z,18.75
2022-10-11T02:02:34.411Z,29.50
2022-10-11T02:05:30.642Z,20.05
2022-10-11T02:08:21.307Z,19.58
2022-10-11T02:10:56.316Z,19.75
2022-10-11T02:13:34.166Z,17.88
2022-10-11T02:16:06.703Z,19.02
2022-10-11T02:18:41.403Z,17.83
2022-10-11T02:21:14.103Z,19.35
2022-10-11T02:23:50.103Z,19.92
2022-10-11T02:26:21.912Z,21.13
2022-10-11T02:28:53.812Z,20.60
2022-10-11T02:31:23.920Z,18.20
2022-10-11T02:34:08.702Z,18.35
2022-10-11T02:37:04.652Z,17.88
2022-10-11T02:40:07.619Z,17.17
2022-10-11T02:42:48.196Z,20.90
2022-10-11T02:45:25.924Z,20.80
2022-10-11T02:47:53.884Z,17.58
2022-10-11T02:50:23.039Z,18.27
2022-10-11T02:52:50.544Z,18.83
2022-10-11T02:55:18.259Z,17.73
2022-10-11T02:57:46.363Z,18.25
2022-10-11T03:00:14.963Z,19.15
2022-10-11T03:02:42.516Z,20.20
2022-10-11T03:05:10.240Z,20.85
2022-10-11T03:07:37.711Z,18.52
2022-10-11T03:10:06.789Z,18.13
2022-10-11T03:12:34.500Z,19.45
2022-10-11T03:15:02.258Z,19.23
2022-10-11T03:17:37.557Z,20.25
2022-10-11T03:20:07.325Z,18.55
2022-10-11T03:22:34.947Z,19.67
2022-10-11T03:25:04.336Z,20.73
2022-10-11T03:27:35.169Z,18.67
2022-10-11T03:30:02.833Z,19.02
2022-10-11T03:32:30.399Z,19.10
2022-10-11T03:34:58.180Z,17.73
2022-10-11T03:37:25.828Z,15.75
2022-10-11T03:39:53.342Z,16.10
2022-10-11T03:42:20.894Z,15.48
2022-10-11T03:44:51.376Z,17.05
2022-10-11T03:47:19.565Z,15.77
2022-10-11T03:49:47.163Z,15.00
2022-10-11T03:52:14.684Z,16.73
2022-10-11T03:54:42.167Z,15.73
2022-10-11T03:57:09.663Z,15.52
2022-10-11T03:59:37.126Z,16.90
2022-10-11T04:02:04.727Z,15.77
2022-10-11T04:04:32.349Z,15.50
2022-10-11T04:06:59.814Z,16.70
2022-10-11T04:09:27.453Z,16.48
2022-10-11T04:11:54.923Z,16.40
2022-10-11T04:14:22.525Z,16.33
2022-10-11T04:16:50.175Z,16.83
2022-10-11T04:19:17.672Z,15.50
2022-10-11T04:21:45.208Z,15.60
2022-10-11T04:24:12.963Z,17.02
2022-10-11T04:26:40.435Z,17.20
2022-10-11T04:29:07.904Z,16.67
2022-10-11T04:31:35.354Z,16.13
2022-10-11T04:34:02.916Z,16.70
2022-10-11T04:36:32.903Z,19.88
2022-10-11T04:39:01.650Z,18.02
2022-10-11T04:41:29.524Z,18.42
2022-10-11T04:43:57.024Z,20.30
2022-10-11T04:46:25.147Z,22.37
2022-10-11T04:48:53.088Z,21.75
2022-10-11T04:51:20.804Z,19.08
2022-10-11T04:53:49.439Z,19.77
2022-10-11T04:56:18.658Z,18.73
2022-10-11T04:58:49.618Z,18.63
2022-10-11T05:01:17.075Z,18.45
2022-10-11T05:03:44.540Z,19.23
2022-10-11T05:06:12.607Z,18.27
2022-10-11T05:08:40.580Z,16.50
2022-10-11T05:11:15.524Z,17.63
2022-10-11T05:13:45.212Z,18.38
2022-10-11T05:16:14.881Z,19.08
2022-10-11T05:18:43.053Z,19.98
2022-10-11T05:21:21.720Z,18.23
2022-10-11T05:23:52.012Z,19.75
2022-10-11T05:26:20.741Z,19.35
2022-10-11T05:28:48.534Z,20.17
2022-10-11T05:31:17.251Z,19.85
2022-10-11T05:33:45.127Z,20.02
2022-10-11T05:36:13.180Z,20.42
2022-10-11T05:38:41.303Z,19.88
2022-10-11T05:41:09.335Z,23.60
2022-10-11T05:43:36.875Z,21.25
2022-10-11T05:46:04.787Z,18.67
2022-10-11T05:48:32.536Z,20.55
2022-10-11T05:51:05.717Z,19.42
2022-10-11T05:53:33.574Z,17.70
2022-10-11T05:56:01.804Z,20.67
2022-10-11T05:58:29.550Z,20.05
2022-10-11T06:00:57.704Z,19.50
2022-10-11T06:03:25.345Z,20.30
2022-10-11T06:05:56.767Z,21.23
2022-10-11T06:08:24.582Z,22.45
2022-10-11T06:10:52.068Z,19.15
2022-10-11T06:13:19.521Z,18.77
2022-10-11T06:15:47.001Z,19.27
2022-10-11T06:18:15.257Z,20.27
2022-10-11T06:23:10.203Z,19.67
2022-10-11T06:25:37.735Z,19.88
2022-10-11T06:28:05.232Z,19.52
2022-10-11T06:30:32.703Z,19.95
2022-10-11T06:33:04.649Z,18.80
2022-10-11T06:35:32.533Z,19.20
2022-10-11T06:38:00.000Z,18.80
2022-10-11T06:40:27.520Z,19.40
2022-10-11T06:42:55.024Z,19.40
2022-10-11T06:45:22.551Z,18.83
2022-10-11T06:47:50.035Z,19.73
2022-10-11T06:50:25.960Z,20.45
2022-10-11T06:53:03.408Z,19.13
2022-10-11T06:55:32.712Z,20.17
2022-10-11T06:58:00.400Z,18.67
2022-10-11T07:00:27.944Z,24.85
2022-10-11T07:02:55.461Z,22.45
2022-10-11T07:05:22.931Z,21.65
2022-10-11T07:07:50.508Z,21.15
2022-10-11T07:10:18.045Z,19.77
2022-10-11T07:12:45.512Z,20.77
2022-10-11T07:15:13.051Z,19.75
2022-10-11T07:17:40.563Z,20.20
2022-10-11T07:20:08.861Z,19.15
2022-10-11T07:22:36.586Z,19.55
2022-10-11T07:25:04.975Z,19.92
2022-10-11T07:27:32.519Z,19.58
2022-10-11T07:30:00.023Z,20.80
2022-10-11T07:32:27.557Z,21.90
2022-10-11T07:34:55.875Z,20.50
2022-10-11T07:37:23.377Z,19.67
2022-10-11T07:39:50.992Z,21.23
2022-10-11T07:42:18.552Z,20.10
2022-10-11T07:44:46.058Z,20.48
2022-10-11T07:47:13.666Z,19.98
2022-10-11T07:49:41.191Z,24.65
2022-10-11T07:52:08.758Z,20.15
2022-10-11T07:54:36.256Z,19.38
2022-10-11T07:57:03.812Z,18.65
2022-10-11T07:59:31.543Z,18.63
2022-10-11T08:01:59.065Z,18.58
2022-10-11T08:04:26.746Z,18.25
2022-10-11T08:06:54.214Z,19.13
2022-10-11T08:09:21.728Z,20.70
2022-10-11T08:11:49.250Z,19.20
2022-10-11T08:14:18.288Z,18.38
2022-10-11T08:16:45.902Z,19.65
2022-10-11T08:19:13.531Z,19.90
2022-10-11T08:21:41.391Z,18.90
2022-10-11T08:24:09.070Z,19.17
2022-10-11T08:26:36.622Z,18.35
2022-10-11T08:29:05.517Z,18.42
2022-10-11T08:31:35.277Z,19.10
2022-10-11T08:34:02.935Z,21.25
2022-10-11T08:36:30.387Z,21.27
2022-10-11T08:38:59.007Z,21.52
2022-10-11T08:41:54.445Z,19.92
2022-10-11T08:45:10.611Z,20.42
2022-10-11T08:47:44.228Z,19.50
2022-10-11T08:50:22.058Z,18.90
2022-10-11T08:55:37.323Z,17.50
2022-10-11T08:58:05.029Z,16.38
2022-10-11T09:00:36.286Z,18.58
2022-10-11T09:03:39.734Z,19.40
2022-10-11T09:06:16.352Z,18.95
2022-10-11T09:09:01.676Z,18.98
2022-10-11T09:12:14.481Z,19.42
2022-10-11T09:15:43.630Z,19.15
2022-10-11T09:18:41.095Z,16.55
2022-10-11T09:21:36.094Z,17.00
2022-10-11T09:24:15.457Z,16.63
2022-10-11T09:26:59.765Z,16.40
2022-10-11T09:30:02.355Z,16.23
2022-10-11T09:32:38.241Z,16.88
2022-10-11T09:35:19.391Z,16.35
2022-10-11T09:37:57.878Z,16.65
2022-10-11T09:40:51.024Z,16.42
2022-10-11T09:43:18.680Z,16.15
2022-10-11T09:45:49.522Z,16.15
2022-10-11T09:48:28.558Z,15.38
2022-10-11T09:51:06.552Z,16.67
2022-10-11T09:54:02.723Z,17.15
2022-10-11T09:56:33.683Z,16.13
2022-10-11T09:59:08.624Z,16.60
2022-10-11T10:01:36.748Z,16.05
2022-10-11T10:06:40.140Z,17.33
2022-10-11T10:09:31.022Z,17.23
2022-10-11T10:11:58.686Z,16.70
2022-10-11T10:14:30.932Z,16.02
2022-10-11T10:17:05.407Z,16.25
2022-10-11T10:19:51.949Z,16.35
2022-10-11T10:22:28.101Z,17.45
2022-10-11T10:24:58.714Z,17.35
2022-10-11T10:27:30.392Z,17.80
2022-10-11T10:30:09.891Z,18.55
2022-10-11T10:33:00.059Z,17.60
2022-10-11T10:35:42.952Z,18.17
2022-10-11T10:38:40.415Z,18.52
2022-10-11T10:41:14.809Z,17.45
2022-10-11T10:43:48.607Z,19.00
2022-10-11T10:46:34.334Z,18.00
2022-10-11T10:49:53.699Z,17.63
2022-10-11T10:52:46.163Z,16.90
2022-10-11T10:55:13.538Z,16.98
2022-10-11T10:58:19.003Z,18.38
2022-10-11T11:00:51.782Z,16.75
2022-10-11T11:03:25.937Z,18.75
2022-10-11T11:06:06.722Z,17.02
2022-10-11T11:08:57.502Z,18.13
2022-10-11T11:11:42.851Z,17.88
2022-10-11T11:14:31.867Z,18.70
2022-10-11T11:16:59.258Z,19.00
2022-10-11T11:20:10.548Z,20.50
2022-10-11T11:23:16.446Z,18.83
2022-10-11T11:26:16.384Z,18.50
2022-10-11T11:29:03.414Z,18.23
2022-10-11T11:32:22.495Z,17.70
2022-10-11T11:35:01.166Z,16.45
2022-10-11T11:37:40.314Z,16.52
2022-10-11T11:40:19.423Z,16.85
2022-10-11T11:43:32.815Z,18.08
2022-10-11T11:46:12.761Z,17.05
2022-10-11T11:48:41.212Z,15.98
2022-10-11T11:51:41.475Z,16.52
2022-10-11T11:54:21.777Z,15.60
2022-10-11T11:57:03.359Z,16.83
2022-10-11T12:00:01.118Z,20.02
2022-10-11T12:05:18.043Z,19.60
2022-10-11T12:08:27.657Z,18.30
2022-10-11T12:11:01.096Z,17.60
2022-10-11T12:13:36.887Z,18.55
2022-10-11T12:16:04.293Z,18.95
2022-10-11T12:18:41.913Z,18.10
2022-10-11T12:21:43.435Z,17.15
2022-10-11T12:24:19.661Z,17.05
2022-10-11T12:26:49.676Z,22.63
2022-10-11T12:29:17.258Z,20.83
2022-10-11T12:31:46.515Z,18.63
2022-10-11T12:34:42.328Z,18.88
2022-10-11T12:37:22.350Z,20.23
2022-10-11T12:39:52.799Z,18.50
2022-10-11T12:42:33.766Z,20.00
2022-10-11T12:45:13.229Z,18.80
2022-10-11T12:47:59.929Z,19.80
2022-10-11T12:51:02.951Z,18.65
2022-10-11T12:54:37.069Z,17.52
2022-10-11T12:57:54.818Z,18.33
2022-10-11T13:03:28.427Z,18.95
2022-10-11T13:06:09.458Z,18.27
2022-10-11T13:08:43.242Z,18.75
2022-10-11T13:11:23.019Z,23.92
2022-10-11T13:14:25.942Z,21.10
2022-10-11T13:17:15.714Z,20.02
2022-10-11T13:19:43.808Z,18.05
2022-10-11T13:24:48.900Z,21.50
2022-10-11T13:27:23.015Z,21.27
2022-10-11T13:29:54.376Z,22.13
2022-10-11T13:32:26.468Z,20.90
2022-10-11T13:35:12.271Z,23.08
2022-10-11T13:37:47.540Z,19.58
2022-10-11T13:40:19.270Z,18.25
2022-10-11T13:42:49.538Z,17.95
2022-10-11T13:45:24.726Z,17.35
2022-10-11T13:47:54.625Z,18.15
2022-10-11T13:50:31.690Z,19.33
2022-10-11T13:53:12.195Z,20.13
2022-10-11T13:55:42.486Z,17.35
2022-10-11T13:58:18.966Z,19.40
2022-10-11T14:01:03.354Z,17.33
2022-10-11T14:04:01.006Z,16.95
2022-10-11T14:06:59.385Z,16.70
2022-10-11T14:09:34.711Z,16.80
2022-10-11T14:12:29.560Z,16.90
2022-10-11T14:14:57.554Z,18.45
2022-10-11T14:17:45.913Z,17.50
2022-10-11T14:20:20.087Z,17.08
2022-10-11T14:22:52.207Z,18.85
2022-10-11T14:25:21.678Z,16.75
2022-10-11T14:27:49.575Z,17.05
2022-10-11T14:30:26.050Z,17.42
2022-10-11T14:32:59.510Z,17.60
2022-10-11T14:35:32.566Z,19.42
2022-10-11T14:38:00.493Z,18.77
2022-10-11T14:40:31.617Z,20.17
2022-10-11T14:42:59.263Z,20.20
2022-10-11T14:45:26.962Z,18.83
2022-10-11T14:47:55.779Z,17.35
2022-10-11T14:50:40.463Z,18.55
2022-10-11T14:53:09.754Z,17.75
2022-10-11T14:55:39.800Z,18.27
2022-10-11T14:58:09.113Z,18.83
2022-10-11T15:00:37.464Z,18.20
2022-10-11T15:03:07.296Z,18.38
2022-10-11T15:05:36.513Z,19.83
2022-10-11T15:08:06.913Z,21.63
2022-10-11T15:10:39.519Z,19.23
2022-10-11T15:13:08.636Z,20.42
2022-10-11T15:15:40.855Z,23.42
2022-10-11T15:18:13.418Z,23.05
2022-10-11T15:20:44.363Z,23.33
2022-10-11T15:23:12.756Z,24.08
2022-10-11T15:25:41.357Z,23.88
2022-10-11T15:28:23.977Z,23.13
2022-10-11T15:30:51.594Z,22.52
2022-10-11T15:33:19.691Z,24.33
2022-10-11T15:35:47.759Z,29.30
2022-10-11T15:38:22.256Z,29.17
2022-10-11T15:40:51.074Z,25.90
2022-10-11T15:43:24.422Z,24.65
2022-10-11T15:45:52.691Z,25.27
2022-10-11T15:48:23.525Z,24.55
2022-10-11T15:50:51.455Z,26.48
2022-10-11T15:53:24.702Z,27.15
2022-10-11T15:55:55.303Z,25.77
2022-10-11T15:58:31.850Z,26.30
2022-10-11T16:01:05.602Z,28.55
2022-10-11T16:03:33.825Z,28.42
2022-10-11T16:06:05.286Z,32.90
2022-10-11T16:08:35.135Z,31.27
2022-10-11T16:11:05.857Z,32.67
2022-10-11T16:13:34.061Z,33.63
2022-10-11T16:18:35.014Z,36.67
2022-10-11T16:21:11.820Z,35.45
2022-10-11T16:23:39.505Z,37.20
2022-10-11T16:26:13.404Z,38.45
2022-10-11T16:28:42.112Z,36.70
2022-10-11T16:31:16.814Z,37.88
2022-10-11T16:33:48.041Z,38.20
2022-10-11T16:36:32.183Z,37.38
2022-10-11T16:39:03.426Z,36.90
2022-10-11T16:41:30.908Z,37.78
2022-10-11T16:43:58.392Z,44.17
2022-10-11T16:46:25.950Z,49.83
2022-10-11T16:48:58.346Z,55.05
2022-10-11T16:51:25.887Z,56.40
2022-10-11T16:53:53.723Z,68.80
2022-10-11T16:56:22.695Z,69.45
2022-10-11T16:58:52.895Z,56.75
2022-10-11T17:01:21.060Z,54.10
2022-10-11T17:06:19.337Z,37.35
2022-10-11T17:08:47.151Z,37.30
2022-10-11T17:11:17.464Z,36.22
2022-10-11T17:13:46.428Z,35.38
2022-10-11T17:16:15.245Z,32.33
2022-10-11T17:18:43.680Z,31.63
2022-10-11T17:21:16.171Z,30.30
2022-10-11T17:23:44.321Z,30.95
2022-10-11T17:28:49.551Z,28.08
2022-10-11T17:31:17.630Z,28.80
2022-10-11T17:33:46.155Z,26.02
2022-10-11T17:36:27.866Z,27.65
2022-10-11T17:38:55.388Z,28.17
2022-10-11T17:41:22.978Z,29.92
2022-10-11T17:43:50.553Z,30.85
2022-10-11T17:46:19.003Z,32.92
2022-10-11T17:48:46.526Z,32.03
2022-10-11T17:51:18.010Z,33.53
2022-10-11T17:53:48.095Z,34.28
2022-10-11T17:56:25.338Z,31.65
2022-10-11T17:58:57.911Z,30.02
2022-10-11T18:01:29.133Z,28.60
2022-10-11T18:04:00.349Z,26.98
2022-10-11T18:06:32.140Z,25.92
2022-10-11T18:09:02.313Z,25.92
2022-10-11T18:11:31.127Z,27.23
2022-10-11T18:13:59.173Z,25.80
2022-10-11T18:16:29.131Z,25.65
2022-10-11T18:18:58.358Z,27.02
2022-10-11T18:21:31.338Z,25.63
2022-10-11T18:24:08.089Z,24.15
2022-10-11T18:26:35.575Z,25.58
2022-10-11T18:29:04.780Z,26.98
2022-10-11T18:31:35.114Z,26.45
2022-10-11T18:34:03.870Z,27.20
2022-10-11T18:36:32.790Z,25.38
2022-10-11T18:39:05.050Z,26.73
2022-10-11T18:41:35.573Z,24.95
2022-10-11T18:46:35.495Z,24.95
2022-10-11T18:49:03.777Z,27.02
2022-10-11T18:54:13.961Z,23.10
2022-10-11T18:56:44.748Z,26.38
2022-10-11T18:59:12.291Z,26.67
2022-10-11T19:01:44.370Z,25.88
2022-10-11T19:04:15.990Z,24.52
2022-10-11T19:06:48.431Z,23.67
2022-10-11T19:09:22.718Z,23.88
2022-10-11T19:11:53.706Z,25.88
2022-10-11T19:14:31.573Z,26.20
2022-10-11T19:16:59.112Z,25.48
2022-10-11T19:19:29.634Z,25.67
2022-10-11T19:21:57.343Z,24.85
2022-10-11T19:24:28.537Z,27.67
2022-10-11T19:27:02.054Z,27.45
2022-10-11T19:29:31.636Z,25.73
2022-10-11T19:32:02.932Z,26.20
2022-10-11T19:34:31.717Z,27.85
2022-10-11T19:37:01.124Z,28.02
2022-10-11T19:39:29.546Z,28.52
2022-10-11T19:41:57.104Z,28.55
2022-10-11T19:44:24.676Z,32.35
2022-10-11T19:46:52.934Z,29.48
2022-10-11T19:49:25.769Z,27.00
2022-10-11T19:51:55.450Z,28.67
2022-10-11T19:54:23.778Z,27.98
2022-10-11T19:56:51.392Z,34.53
2022-10-11T19:59:19.719Z,31.38
2022-10-11T20:01:52.343Z,28.65
2022-10-11T20:07:09.475Z,26.52
2022-10-11T20:09:37.051Z,30.13
2022-10-11T20:12:04.941Z,26.92
2022-10-11T20:14:32.475Z,25.50
2022-10-11T20:16:59.981Z,24.75
2022-10-11T20:19:30.692Z,28.52
2022-10-11T20:22:00.622Z,25.30
2022-10-11T20:24:32.807Z,25.23
2022-10-11T20:27:06.247Z,24.17
2022-10-11T20:29:33.765Z,24.23
2022-10-11T20:32:01.315Z,24.90
2022-10-11T20:34:28.995Z,23.98
2022-10-11T20:36:56.546Z,27.00
2022-10-11T20:39:24.158Z,29.20
2022-10-11T20:41:51.733Z,28.27
2022-10-11T20:44:19.239Z,24.08
2022-10-11T20:46:46.712Z,22.67
2022-10-11T20:49:14.195Z,22.23
2022-10-11T20:51:42.758Z,20.48
2022-10-11T20:54:11.221Z,20.88
2022-10-11T20:56:39.482Z,20.73
2022-10-11T21:01:40.700Z,20.92
2022-10-11T21:04:16.574Z,19.38
2022-10-11T21:06:44.248Z,20.40
2022-10-11T21:09:15.456Z,22.20
2022-10-11T21:11:44.635Z,20.77
2022-10-11T21:14:12.144Z,21.33
2022-10-11T21:16:39.648Z,20.48
2022-10-11T21:19:07.191Z,21.27
2022-10-11T21:21:34.883Z,20.80
2022-10-11T21:24:03.116Z,20.25
2022-10-11T21:31:34.341Z,19.75
2022-10-11T21:34:03.927Z,19.48
2022-10-11T21:36:31.486Z,20.52
2022-10-11T21:38:59.088Z,19.10
2022-10-11T21:41:29.930Z,20.85
2022-10-11T21:43:58.080Z,18.75
2022-10-11T21:46:47.995Z,18.88
2022-10-11T21:49:16.301Z,19.00
2022-10-11T21:51:43.912Z,18.23
2022-10-11T21:54:11.579Z,18.40
2022-10-11T21:56:39.046Z,18.60
2022-10-11T21:59:09.563Z,19.30
2022-10-11T22:01:41.847Z,19.08
2022-10-11T22:04:11.883Z,18.45
2022-10-11T22:06:39.791Z,18.63
2022-10-11T22:09:08.595Z,18.98
2022-10-11T22:11:37.010Z,20.08
2022-10-11T22:16:33.848Z,20.10
2022-10-11T22:19:01.458Z,21.42
2022-10-11T22:21:29.194Z,21.27
2022-10-11T22:23:56.899Z,22.35
2022-10-11T22:26:31.868Z,21.42
2022-10-11T22:29:00.605Z,20.60
2022-10-11T22:31:29.352Z,19.55
2022-10-11T22:33:59.928Z,20.92
2022-10-11T22:36:30.407Z,24.42
2022-10-11T22:38:58.723Z,25.13
2022-10-11T22:41:26.455Z,24.90
2022-10-11T22:43:53.955Z,24.88
2022-10-11T22:46:21.457Z,30.50
2022-10-11T22:48:48.935Z,35.67
2022-10-11T22:51:16.796Z,30.65
2022-10-11T22:53:44.393Z,23.83
2022-10-11T22:56:11.907Z,21.42
2022-10-11T22:58:39.489Z,23.80
2022-10-11T23:01:13.351Z,23.10
2022-10-11T23:03:41.025Z,22.67
2022-10-11T23:06:09.007Z,22.48
2022-10-11T23:08:36.463Z,19.85
2022-10-11T23:11:08.130Z,23.42
2022-10-11T23:13:36.024Z,21.90
2022-10-11T23:16:12.255Z,23.83
2022-10-11T23:18:40.518Z,22.38
2022-10-11T23:23:35.970Z,21.85
2022-10-11T23:26:12.945Z,21.55
2022-10-11T23:28:42.182Z,21.20
2022-10-11T23:31:16.701Z,22.02
2022-10-11T23:33:46.127Z,20.88
2022-10-11T23:36:20.216Z,20.70
2022-10-11T23:38:56.747Z,18.98
2022-10-11T23:41:28.170Z,18.67
2022-10-11T23:43:57.331Z,19.80
2022-10-11T23:46:25.016Z,19.98
2022-10-11T23:48:52.526Z,20.08
2022-10-11T23:51:20.087Z,19.35
2022-10-11T23:53:47.554Z,20.05
2022-10-11T23:56:15.084Z,22.75
2022-10-11T23:58:42.896Z,18.70
